Time;durP1;ratioP1;P1;durP2;ratioP2;P2;SDS_P1;SDS_P2;PMS_P1;PMS_P2;Temp;Humidity;BMP_temperature;BMP_pressure;BME280_temperature;BME280_humidity;BME280_pressure;Samples;Min_cycle;Max_cycle;Signal;HPM_P1;HPM_P2
2022/07/18 00:03:09;;;;;;;4.95;2.20;;;;;;;;;;10421938;28;20095;-55
2022/07/18 00:08:09;;;;;;;4.50;1.90;;;;;;;;;;10411850;28;20091;-56
2022/07/18 00:13:10;;;;;;;3.65;2.03;;;;;;;;;;10396656;28;20029;-56
2022/07/18 00:18:11;;;;;;;3.88;2.15;;;;;;;;;;10393784;28;20029;-54
2022/07/18 00:23:11;;;;;;;4.47;2.03;;;;;;;;;;10413636;28;20376;-58
2022/07/18 00:28:12;;;;;;;6.70;2.33;;;;;;;;;;10400278;28;20205;-57
2022/07/18 00:33:13;;;;;;;3.17;1.85;;;;;;;;;;10418916;28;20026;-58
2022/07/18 00:38:13;;;;;;;4.18;2.20;;;;;;;;;;10408268;28;20366;-57
2022/07/18 00:43:15;;;;;;;3.95;1.92;;;;;;;;;;10409132;28;20036;-56
2022/07/18 00:48:16;;;;;;;5.95;1.98;;;;;;;;;;10400436;28;20033;-56
2022/07/18 00:53:17;;;;;;;3.55;2.03;;;;;;;;;;10395027;28;20030;-54
2022/07/18 00:58:18;;;;;;;3.08;1.70;;;;;;;;;;10417767;28;20025;-50
2022/07/18 01:03:19;;;;;;;5.65;2.10;;;;;;;;;;10414383;28;20021;-51
2022/07/18 01:08:19;;;;;;;2.33;1.83;;;;;;;;;;10407131;28;20065;-53
2022/07/18 01:13:21;;;;;;;2.13;1.90;;;;;;;;;;10408091;28;20424;-53
2022/07/18 01:18:21;;;;;;;3.70;1.75;;;;;;;;;;10402194;28;20084;-52
2022/07/18 01:23:22;;;;;;;5.88;1.88;;;;;;;;;;10406042;28;20081;-54
2022/07/18 01:28:22;;;;;;;3.53;1.90;;;;;;;;;;10413812;28;20033;-55
2022/07/18 01:33:23;;;;;;;4.00;1.90;;;;;;;;;;10407904;28;20105;-55
2022/07/18 01:38:24;;;;;;;2.58;1.98;;;;;;;;;;10424421;28;20150;-57
2022/07/18 01:43:26;;;;;;;2.92;1.77;;;;;;;;;;10407988;28;20034;-57
2022/07/18 01:48:27;;;;;;;3.05;1.90;;;;;;;;;;10399138;28;20057;-55
2022/07/18 01:53:28;;;;;;;4.10;2.08;;;;;;;;;;10416861;28;20040;-57
2022/07/18 01:58:28;;;;;;;2.78;1.88;;;;;;;;;;10412050;28;20389;-51
2022/07/18 02:03:29;;;;;;;2.45;2.03;;;;;;;;;;10416960;28;20025;-57
2022/07/18 02:08:30;;;;;;;2.67;1.73;;;;;;;;;;10411069;28;20217;-55
2022/07/18 02:13:30;;;;;;;5.20;1.60;;;;;;;;;;10417387;28;20466;-55
2022/07/18 02:18:32;;;;;;;3.60;1.80;;;;;;;;;;10410229;28;20026;-55
2022/07/18 02:23:34;;;;;;;2.05;1.70;;;;;;;;;;10410154;28;20052;-55
2022/07/18 02:28:35;;;;;;;2.60;1.98;;;;;;;;;;10408477;28;20373;-58
2022/07/18 02:33:36;;;;;;;1.90;1.77;;;;;;;;;;10419209;28;20071;-54
2022/07/18 02:38:37;;;;;;;1.88;1.70;;;;;;;;;;10393372;28;20104;-53
2022/07/18 02:43:37;;;;;;;2.22;1.80;;;;;;;;;;10416992;28;20069;-54
2022/07/18 02:48:38;;;;;;;2.55;1.60;;;;;;;;;;10388151;28;20037;-51
2022/07/18 02:53:38;;;;;;;4.65;2.10;;;;;;;;;;10405829;28;20033;-50
2022/07/18 02:58:40;;;;;;;2.47;1.88;;;;;;;;;;10405105;28;20029;-51
2022/07/18 03:03:40;;;;;;;4.40;1.67;;;;;;;;;;10399948;28;20830;-49
2022/07/18 03:08:41;;;;;;;2.38;1.83;;;;;;;;;;10389976;28;20033;-56
2022/07/18 03:13:41;;;;;;;5.55;1.75;;;;;;;;;;10392384;28;20040;-57
2022/07/18 03:18:42;;;;;;;5.20;1.90;;;;;;;;;;10400711;28;20083;-57
2022/07/18 03:23:43;;;;;;;4.82;1.70;;;;;;;;;;10413959;28;20293;-56
2022/07/18 03:28:43;;;;;;;3.08;1.90;;;;;;;;;;10406559;28;20090;-52
2022/07/18 03:33:44;;;;;;;4.60;2.10;;;;;;;;;;10404211;28;20028;-53
2022/07/18 03:38:44;;;;;;;3.13;1.80;;;;;;;;;;10412208;28;20034;-53
2022/07/18 03:43:45;;;;;;;3.53;1.63;;;;;;;;;;10400650;28;20075;-54
2022/07/18 03:48:46;;;;;;;4.38;1.98;;;;;;;;;;10400078;28;20049;-51
2022/07/18 03:53:46;;;;;;;2.35;1.60;;;;;;;;;;10409338;28;20494;-52
2022/07/18 03:58:47;;;;;;;3.72;1.63;;;;;;;;;;10415024;28;20117;-51
2022/07/18 04:03:47;;;;;;;2.03;1.65;;;;;;;;;;10406406;28;20401;-55
2022/07/18 04:08:48;;;;;;;1.42;1.33;;;;;;;;;;10397599;28;20103;-55
2022/07/18 04:13:49;;;;;;;1.73;1.50;;;;;;;;;;10391484;28;20469;-51
2022/07/18 04:18:51;;;;;;;2.92;1.63;;;;;;;;;;10392779;28;20199;-53
2022/07/18 04:23:52;;;;;;;2.30;1.70;;;;;;;;;;10409021;28;20060;-57
2022/07/18 04:28:53;;;;;;;1.60;1.50;;;;;;;;;;10402778;28;20076;-56
2022/07/18 04:33:54;;;;;;;2.33;1.67;;;;;;;;;;10398605;28;20104;-56
2022/07/18 04:38:54;;;;;;;2.15;1.75;;;;;;;;;;10400087;28;20029;-53
2022/07/18 04:43:55;;;;;;;2.85;1.65;;;;;;;;;;10384739;28;20084;-54
2022/07/18 04:48:55;;;;;;;2.65;1.60;;;;;;;;;;10394071;28;20034;-53
2022/07/18 04:53:56;;;;;;;4.72;2.08;;;;;;;;;;10391531;28;20322;-54
2022/07/18 04:59:07;;;;;;;3.20;1.52;;;;;;;;;;10418764;28;20503;-58
2022/07/18 05:04:07;;;;;;;5.15;1.70;;;;;;;;;;10409462;28;20018;-55
2022/07/18 05:09:08;;;;;;;7.90;1.80;;;;;;;;;;10420038;28;20037;-54
2022/07/18 05:14:09;;;;;;;3.50;1.73;;;;;;;;;;10398486;28;20021;-57
2022/07/18 05:19:09;;;;;;;4.22;1.65;;;;;;;;;;10400630;28;20046;-56
2022/07/18 05:24:11;;;;;;;4.82;1.45;;;;;;;;;;10403322;28;20049;-55
2022/07/18 05:29:15;;;;;;;5.93;1.80;;;;;;;;;;10395544;28;20087;-55
2022/07/18 05:34:15;;;;;;;14.30;2.55;;;;;;;;;;10407685;28;20080;-52
2022/07/18 05:39:16;;;;;;;3.40;1.70;;;;;;;;;;10396400;28;20025;-56
2022/07/18 05:44:19;;;;;;;32.47;2.95;;;;;;;;;;10402229;28;20032;-57
2022/07/18 05:49:20;;;;;;;15.77;2.83;;;;;;;;;;10402301;28;20049;-53
2022/07/18 05:54:20;;;;;;;32.45;3.42;;;;;;;;;;10395543;28;20034;-57
2022/07/18 05:59:21;;;;;;;35.08;3.95;;;;;;;;;;10394072;28;20377;-55
2022/07/18 06:04:22;;;;;;;26.67;3.95;;;;;;;;;;10408662;28;20075;-57
2022/07/18 06:09:23;;;;;;;29.70;3.38;;;;;;;;;;10418668;28;20084;-58
2022/07/18 06:14:23;;;;;;;23.55;3.63;;;;;;;;;;10409905;28;20049;-52
2022/07/18 06:19:25;;;;;;;20.63;4.22;;;;;;;;;;10429216;28;20086;-50
2022/07/18 06:24:25;;;;;;;23.50;3.95;;;;;;;;;;10432057;28;20071;-55
2022/07/18 06:29:26;;;;;;;21.63;3.67;;;;;;;;;;10424949;28;20190;-56
2022/07/18 06:34:26;;;;;;;25.40;4.22;;;;;;;;;;10432575;28;20116;-50
2022/07/18 06:39:27;;;;;;;30.20;4.47;;;;;;;;;;10423905;28;20029;-55
2022/07/18 06:44:28;;;;;;;17.88;3.63;;;;;;;;;;10412203;28;20099;-55
2022/07/18 06:49:29;;;;;;;20.15;3.60;;;;;;;;;;10407662;28;20042;-53
2022/07/18 06:54:30;;;;;;;25.95;3.53;;;;;;;;;;10409499;28;20022;-51
2022/07/18 06:59:30;;;;;;;20.08;3.90;;;;;;;;;;10412937;28;20120;-52
2022/07/18 07:04:31;;;;;;;20.23;3.75;;;;;;;;;;10413795;28;20411;-54
2022/07/18 07:09:32;;;;;;;20.20;3.97;;;;;;;;;;10381660;28;20029;-53
2022/07/18 07:14:33;;;;;;;18.30;3.35;;;;;;;;;;10417918;28;20026;-56
2022/07/18 07:19:33;;;;;;;15.23;3.45;;;;;;;;;;10405925;28;20041;-55
2022/07/18 07:24:34;;;;;;;12.25;2.85;;;;;;;;;;10406732;28;20095;-50
2022/07/18 07:29:34;;;;;;;11.82;3.25;;;;;;;;;;10411489;28;20037;-55
2022/07/18 07:34:35;;;;;;;20.13;3.30;;;;;;;;;;10420513;28;20021;-54
2022/07/18 07:39:36;;;;;;;17.98;3.13;;;;;;;;;;10425804;28;20032;-53
2022/07/18 07:44:36;;;;;;;9.98;3.13;;;;;;;;;;10447791;28;20025;-57
2022/07/18 07:49:37;;;;;;;15.77;3.25;;;;;;;;;;10410426;28;20080;-54
2022/07/18 07:54:37;;;;;;;12.00;2.80;;;;;;;;;;10408595;28;20291;-57
2022/07/18 07:59:38;;;;;;;12.35;2.97;;;;;;;;;;10407338;28;20033;-52
2022/07/18 08:04:39;;;;;;;20.52;3.92;;;;;;;;;;10403645;28;20108;-51
2022/07/18 08:09:40;;;;;;;12.90;3.40;;;;;;;;;;10398015;28;20118;-52
2022/07/18 08:14:41;;;;;;;11.43;2.97;;;;;;;;;;10403358;28;20026;-51
2022/07/18 08:19:42;;;;;;;8.88;2.40;;;;;;;;;;10414419;28;20461;-55
2022/07/18 08:24:43;;;;;;;13.48;2.63;;;;;;;;;;10415167;28;20045;-51
2022/07/18 08:29:43;;;;;;;5.80;2.47;;;;;;;;;;10412560;28;20026;-51
2022/07/18 08:34:44;;;;;;;9.57;2.70;;;;;;;;;;10417996;28;20018;-50
2022/07/18 08:39:44;;;;;;;4.95;2.67;;;;;;;;;;10407946;28;20029;-52
2022/07/18 08:44:46;;;;;;;8.23;2.42;;;;;;;;;;10418113;28;20470;-51
2022/07/18 08:49:48;;;;;;;6.35;2.10;;;;;;;;;;10423671;28;20030;-51
2022/07/18 08:54:48;;;;;;;8.60;2.90;;;;;;;;;;10419487;28;20091;-52
2022/07/18 08:59:50;;;;;;;9.57;3.08;;;;;;;;;;10417383;28;20030;-53
2022/07/18 09:04:50;;;;;;;10.10;2.95;;;;;;;;;;10419005;28;20034;-52
2022/07/18 09:09:57;;;;;;;12.80;2.85;;;;;;;;;;10413181;28;20033;-56
2022/07/18 09:15:10;;;;;;;11.70;3.80;;;;;;;;;;10417861;28;20419;-55
2022/07/18 09:20:16;;;;;;;10.07;4.10;;;;;;;;;;10417951;28;20047;-54
2022/07/18 09:25:24;;;;;;;11.00;3.70;;;;;;;;;;10416713;28;20065;-52
2022/07/18 09:30:35;;;;;;;6.50;3.72;;;;;;;;;;10420033;28;20036;-54
2022/07/18 09:35:51;;;;;;;15.48;3.80;;;;;;;;;;10421905;28;20369;-51
2022/07/18 09:40:54;;;;;;;11.48;3.60;;;;;;;;;;10409082;28;20083;-48
2022/07/18 09:45:56;;;;;;;9.30;3.53;;;;;;;;;;10429109;28;20025;-50
2022/07/18 09:51:07;;;;;;;7.22;3.75;;;;;;;;;;10410676;28;20040;-51
2022/07/18 09:56:11;;;;;;;9.32;3.15;;;;;;;;;;10413273;28;20465;-49
2022/07/18 10:01:12;;;;;;;4.25;3.10;;;;;;;;;;10413643;28;20033;-48
2022/07/18 10:06:13;;;;;;;8.88;3.88;;;;;;;;;;10411770;28;20376;-53
2022/07/18 10:11:13;;;;;;;6.78;3.70;;;;;;;;;;10400816;28;20084;-54
2022/07/18 10:16:14;;;;;;;11.13;4.00;;;;;;;;;;10414635;28;20056;-54
2022/07/18 10:21:19;;;;;;;6.05;3.75;;;;;;;;;;10414640;28;20026;-49
2022/07/18 10:26:25;;;;;;;6.57;3.72;;;;;;;;;;10388059;28;20115;-53
2022/07/18 10:31:38;;;;;;;6.28;4.00;;;;;;;;;;10412115;28;20033;-57
2022/07/18 10:36:51;;;;;;;4.97;3.67;;;;;;;;;;10409808;28;20028;-51
2022/07/18 10:41:51;;;;;;;5.57;3.85;;;;;;;;;;10403667;28;20044;-53
2022/07/18 10:47:15;;;;;;;4.65;3.72;;;;;;;;;;10415352;28;20048;-50
2022/07/18 10:52:24;;;;;;;7.95;3.83;;;;;;;;;;10403852;28;20102;-52
2022/07/18 10:57:25;;;;;;;8.00;3.67;;;;;;;;;;10405913;28;20052;-56
2022/07/18 11:02:45;;;;;;;6.75;3.80;;;;;;;;;;10391948;28;20450;-56
2022/07/18 11:08:05;;;;;;;6.88;4.20;;;;;;;;;;10396069;28;20036;-55
2022/07/18 11:13:25;;;;;;;7.03;3.95;;;;;;;;;;10404940;28;20436;-56
2022/07/18 11:18:26;;;;;;;11.00;3.97;;;;;;;;;;10411336;28;20031;-52
2022/07/18 11:23:27;;;;;;;8.13;3.83;;;;;;;;;;10415313;28;20552;-48
2022/07/18 11:28:28;;;;;;;7.22;4.22;;;;;;;;;;10411613;28;20032;-57
2022/07/18 11:33:32;;;;;;;11.32;4.15;;;;;;;;;;10413472;28;20044;-55
2022/07/18 11:38:35;;;;;;;8.52;4.10;;;;;;;;;;10420091;28;20033;-51
2022/07/18 11:43:35;;;;;;;10.25;4.18;;;;;;;;;;10411659;28;20161;-57
2022/07/18 11:48:37;;;;;;;10.93;4.03;;;;;;;;;;10407694;28;20461;-53
2022/07/18 11:53:49;;;;;;;8.90;4.00;;;;;;;;;;10401272;28;20030;-54
2022/07/18 11:58:51;;;;;;;8.93;3.17;;;;;;;;;;10403373;28;20056;-55
2022/07/18 12:03:52;;;;;;;5.03;3.10;;;;;;;;;;10393043;28;20088;-58
2022/07/18 12:09:06;;;;;;;6.82;3.67;;;;;;;;;;10407781;28;20492;-49
2022/07/18 12:14:09;;;;;;;5.15;3.67;;;;;;;;;;10394841;28;20050;-52
2022/07/18 12:19:24;;;;;;;7.93;3.88;;;;;;;;;;10391757;28;20048;-52
2022/07/18 12:24:35;;;;;;;7.03;3.70;;;;;;;;;;10394354;28;20481;-53
2022/07/18 12:30:02;;;;;;;6.40;3.47;;;;;;;;;;10404132;28;20123;-54
2022/07/18 12:35:07;;;;;;;7.03;3.70;;;;;;;;;;10389573;28;20026;-51
2022/07/18 12:40:11;;;;;;;10.80;3.38;;;;;;;;;;10392104;28;20028;-51
2022/07/18 12:45:13;;;;;;;5.72;4.07;;;;;;;;;;10390488;28;20022;-50
2022/07/18 12:50:14;;;;;;;7.03;3.38;;;;;;;;;;10399576;28;20033;-50
2022/07/18 12:55:15;;;;;;;7.65;3.15;;;;;;;;;;10387147;28;20048;-54
2022/07/18 13:00:16;;;;;;;4.95;3.75;;;;;;;;;;10403046;28;20032;-53
2022/07/18 13:05:16;;;;;;;7.55;3.88;;;;;;;;;;10402516;28;20022;-49
2022/07/18 13:10:17;;;;;;;9.70;3.53;;;;;;;;;;10406334;28;20503;-54
2022/07/18 13:15:20;;;;;;;6.80;3.35;;;;;;;;;;10397711;28;20036;-50
2022/07/18 13:20:21;;;;;;;5.85;3.42;;;;;;;;;;10406314;28;20553;-51
2022/07/18 13:25:22;;;;;;;10.32;3.78;;;;;;;;;;10381887;28;20051;-51
2022/07/18 13:30:23;;;;;;;12.63;3.78;;;;;;;;;;10398986;28;20029;-51
2022/07/18 13:35:23;;;;;;;13.02;4.00;;;;;;;;;;10413944;28;20029;-49
2022/07/18 13:40:24;;;;;;;10.48;4.20;;;;;;;;;;10408806;28;20087;-54
2022/07/18 13:45:25;;;;;;;6.95;3.40;;;;;;;;;;10428116;28;20504;-52
2022/07/18 13:50:25;;;;;;;11.05;3.78;;;;;;;;;;10436426;28;20139;-51
2022/07/18 13:55:26;;;;;;;5.93;3.60;;;;;;;;;;10435883;28;20448;-49
2022/07/18 14:00:26;;;;;;;6.32;3.85;;;;;;;;;;10421028;28;20033;-52
2022/07/18 14:05:27;;;;;;;8.00;4.32;;;;;;;;;;10397684;28;20536;-52
2022/07/18 14:10:28;;;;;;;15.27;5.15;;;;;;;;;;10415731;28;20168;-51
2022/07/18 14:15:28;;;;;;;16.88;5.32;;;;;;;;;;10408714;28;20026;-52
2022/07/18 14:20:29;;;;;;;17.83;5.45;;;;;;;;;;10412984;28;20378;-49
2022/07/18 14:25:30;;;;;;;11.20;4.90;;;;;;;;;;10404734;28;20036;-48
2022/07/18 14:30:31;;;;;;;12.68;5.63;;;;;;;;;;10405216;28;20037;-51
2022/07/18 14:35:31;;;;;;;12.32;4.75;;;;;;;;;;10412780;28;20071;-48
2022/07/18 14:40:32;;;;;;;11.55;4.72;;;;;;;;;;10413326;28;20033;-48
2022/07/18 14:45:33;;;;;;;12.50;4.35;;;;;;;;;;10403289;28;20033;-51
2022/07/18 14:50:34;;;;;;;11.75;4.28;;;;;;;;;;10424881;28;20124;-49
2022/07/18 14:55:34;;;;;;;8.75;4.03;;;;;;;;;;10429414;28;20587;-48
2022/07/18 15:00:35;;;;;;;11.20;4.68;;;;;;;;;;10426160;28;20031;-49
2022/07/18 15:05:35;;;;;;;8.05;4.30;;;;;;;;;;10417190;28;20045;-49
2022/07/18 15:10:36;;;;;;;8.88;4.40;;;;;;;;;;10394977;28;20084;-49
2022/07/18 15:15:36;;;;;;;9.10;4.30;;;;;;;;;;10400792;28;20038;-52
2022/07/18 15:20:37;;;;;;;10.43;4.18;;;;;;;;;;10396941;28;20025;-52
2022/07/18 15:25:38;;;;;;;9.02;4.43;;;;;;;;;;10403880;28;20128;-48
2022/07/18 15:30:38;;;;;;;10.55;4.18;;;;;;;;;;10403100;28;20050;-48
2022/07/18 15:35:39;;;;;;;6.60;3.92;;;;;;;;;;10408095;28;20032;-49
2022/07/18 15:40:39;;;;;;;11.70;4.63;;;;;;;;;;10401311;28;20025;-49
2022/07/18 15:45:40;;;;;;;8.70;4.05;;;;;;;;;;10399271;28;20022;-49
2022/07/18 15:50:41;;;;;;;6.47;3.63;;;;;;;;;;10403712;28;20037;-49
2022/07/18 15:55:41;;;;;;;7.50;3.72;;;;;;;;;;10424850;28;20053;-49
2022/07/18 16:00:42;;;;;;;6.95;3.47;;;;;;;;;;10420173;28;20457;-50
2022/07/18 16:05:43;;;;;;;5.93;3.88;;;;;;;;;;10398297;28;20488;-51
2022/07/18 16:10:43;;;;;;;8.05;3.90;;;;;;;;;;10401058;28;20441;-51
2022/07/18 16:15:45;;;;;;;6.57;3.75;;;;;;;;;;10405749;28;20075;-49
2022/07/18 16:20:47;;;;;;;7.93;4.30;;;;;;;;;;10393498;28;20500;-54
2022/07/18 16:25:47;;;;;;;6.47;3.40;;;;;;;;;;10386643;28;20041;-50
2022/07/18 16:30:49;;;;;;;9.95;4.10;;;;;;;;;;10404958;28;20341;-50
2022/07/18 16:35:49;;;;;;;10.70;4.15;;;;;;;;;;10402005;28;20056;-49
2022/07/18 16:40:51;;;;;;;15.05;4.10;;;;;;;;;;10391405;28;20095;-51
2022/07/18 16:45:52;;;;;;;21.00;4.60;;;;;;;;;;10414162;28;20064;-53
2022/07/18 16:50:52;;;;;;;15.50;4.00;;;;;;;;;;10411272;28;20141;-47
2022/07/18 16:55:53;;;;;;;9.30;3.78;;;;;;;;;;10401523;28;20120;-48
2022/07/18 17:00:55;;;;;;;10.75;3.97;;;;;;;;;;10394669;28;20080;-47
2022/07/18 17:05:58;;;;;;;6.15;3.95;;;;;;;;;;10402651;28;20017;-51
2022/07/18 17:11:00;;;;;;;4.78;3.15;;;;;;;;;;10400365;28;20599;-51
2022/07/18 17:16:00;;;;;;;5.05;3.60;;;;;;;;;;10411296;28;20022;-49
2022/07/18 17:21:03;;;;;;;7.78;3.58;;;;;;;;;;10418337;28;20415;-48
2022/07/18 17:26:04;;;;;;;11.18;4.07;;;;;;;;;;10416909;28;20144;-52
2022/07/18 17:31:06;;;;;;;5.53;3.35;;;;;;;;;;10401218;28;20038;-54
2022/07/18 17:36:07;;;;;;;9.77;3.50;;;;;;;;;;10419143;28;20481;-49
2022/07/18 17:41:08;;;;;;;11.77;3.60;;;;;;;;;;10409010;28;20037;-47
2022/07/18 17:46:10;;;;;;;5.93;3.40;;;;;;;;;;10407171;28;20033;-51
2022/07/18 17:51:12;;;;;;;9.05;4.03;;;;;;;;;;10407168;28;20057;-54
2022/07/18 17:56:15;;;;;;;6.55;4.00;;;;;;;;;;10404236;28;20028;-52
2022/07/18 18:01:17;;;;;;;9.63;4.00;;;;;;;;;;10394336;28;20500;-56
2022/07/18 18:06:18;;;;;;;10.45;3.72;;;;;;;;;;10390830;28;20036;-54
2022/07/18 18:11:19;;;;;;;9.70;3.80;;;;;;;;;;10398287;28;20496;-54
2022/07/18 18:16:19;;;;;;;11.73;3.20;;;;;;;;;;10408324;28;20467;-55
2022/07/18 18:21:20;;;;;;;6.03;3.03;;;;;;;;;;10405134;28;20025;-54
2022/07/18 18:26:21;;;;;;;11.93;3.72;;;;;;;;;;10410032;28;20373;-53
2022/07/18 18:31:21;;;;;;;11.80;3.30;;;;;;;;;;10402539;28;20033;-54
2022/07/18 18:36:54;;;;;;;7.70;3.20;;;;;;;;;;10402855;28;20025;-54
2022/07/18 18:41:43;;;;;;;7.40;3.20;;;;;;;;;;10398440;28;20489;-54
2022/07/18 18:46:43;;;;;;;4.88;3.00;;;;;;;;;;10410665;28;20029;-58
2022/07/18 18:51:46;;;;;;;8.57;3.33;;;;;;;;;;10411298;28;20472;-54
2022/07/18 18:56:47;;;;;;;10.20;3.65;;;;;;;;;;10411488;28;20568;-55
2022/07/18 19:01:48;;;;;;;9.30;3.05;;;;;;;;;;10413491;28;20566;-55
2022/07/18 19:06:48;;;;;;;7.82;3.20;;;;;;;;;;10411631;28;20236;-57
2022/07/18 19:11:50;;;;;;;9.40;3.55;;;;;;;;;;10402145;28;20056;-55
2022/07/18 19:16:51;;;;;;;9.60;3.50;;;;;;;;;;10409848;28;20109;-54
2022/07/18 19:21:51;;;;;;;11.48;3.05;;;;;;;;;;10409106;28;20401;-54
2022/07/18 19:26:52;;;;;;;9.93;2.88;;;;;;;;;;10408872;28;20424;-51
2022/07/18 19:31:53;;;;;;;13.32;3.25;;;;;;;;;;10409569;28;20056;-54
2022/07/18 19:36:54;;;;;;;13.10;3.40;;;;;;;;;;10409983;28;20497;-54
2022/07/18 19:41:56;;;;;;;9.20;3.08;;;;;;;;;;10423655;28;20088;-54
2022/07/18 19:46:56;;;;;;;8.95;3.40;;;;;;;;;;10446261;28;20115;-54
2022/07/18 19:51:57;;;;;;;7.43;3.38;;;;;;;;;;10422611;28;20041;-54
2022/07/18 19:56:58;;;;;;;12.68;3.97;;;;;;;;;;10431602;28;20078;-54
2022/07/18 20:01:58;;;;;;;8.65;3.03;;;;;;;;;;10422007;28;20029;-55
2022/07/18 20:07:20;;;;;;;7.78;3.08;;;;;;;;;;10407796;28;20076;-54
2022/07/18 20:12:20;;;;;;;9.82;3.03;;;;;;;;;;10332650;28;20129;-54
2022/07/18 20:17:21;;;;;;;7.70;3.20;;;;;;;;;;10342910;28;20077;-54
2022/07/18 20:22:21;;;;;;;9.23;3.30;;;;;;;;;;10319886;28;20398;-54
2022/07/18 20:27:23;;;;;;;7.40;3.00;;;;;;;;;;10308182;28;20042;-54
2022/07/18 20:32:23;;;;;;;7.38;3.05;;;;;;;;;;10321895;28;20030;-55
2022/07/18 20:37:24;;;;;;;5.28;3.22;;;;;;;;;;10319830;28;20034;-55
2022/07/18 20:42:25;;;;;;;6.82;2.97;;;;;;;;;;10321202;28;20034;-54
2022/07/18 20:47:27;;;;;;;7.38;2.85;;;;;;;;;;10352033;28;20055;-54
2022/07/18 20:52:28;;;;;;;12.40;2.90;;;;;;;;;;10414591;28;20021;-54
2022/07/18 20:57:28;;;;;;;8.65;3.25;;;;;;;;;;10415038;28;20029;-53
2022/07/18 21:02:29;;;;;;;5.75;3.08;;;;;;;;;;10414584;28;20088;-54
2022/07/18 21:07:29;;;;;;;8.63;3.00;;;;;;;;;;10414640;28;20033;-54
2022/07/18 21:12:30;;;;;;;4.88;2.78;;;;;;;;;;10413082;28;20041;-54
2022/07/18 21:17:32;;;;;;;6.50;3.10;;;;;;;;;;10411100;28;20192;-57
2022/07/18 21:22:34;;;;;;;5.43;2.80;;;;;;;;;;10399114;28;20042;-52
2022/07/18 21:27:34;;;;;;;4.82;3.00;;;;;;;;;;10385599;28;20413;-56
2022/07/18 21:32:35;;;;;;;13.00;3.10;;;;;;;;;;10409602;28;20041;-55
2022/07/18 21:37:36;;;;;;;8.35;3.28;;;;;;;;;;10420407;28;20041;-58
2022/07/18 21:42:37;;;;;;;10.25;3.03;;;;;;;;;;10420960;28;20539;-58
2022/07/18 21:47:37;;;;;;;6.68;2.78;;;;;;;;;;10410586;28;20022;-56
2022/07/18 21:52:39;;;;;;;8.00;2.55;;;;;;;;;;10401976;28;20053;-58
2022/07/18 21:57:40;;;;;;;6.60;2.78;;;;;;;;;;10409864;28;20530;-56
2022/07/18 22:02:42;;;;;;;5.75;2.75;;;;;;;;;;10414218;28;20101;-56
2022/07/18 22:07:42;;;;;;;6.47;2.58;;;;;;;;;;10406749;28;20381;-55
2022/07/18 22:12:43;;;;;;;14.35;2.70;;;;;;;;;;10408028;28;20034;-57
2022/07/18 22:17:44;;;;;;;7.32;2.60;;;;;;;;;;10419708;28;20021;-57
2022/07/18 22:22:44;;;;;;;8.27;2.63;;;;;;;;;;10428052;28;20029;-58
2022/07/18 22:27:45;;;;;;;9.32;2.78;;;;;;;;;;10401873;28;20038;-56
2022/07/18 22:32:45;;;;;;;7.07;3.05;;;;;;;;;;10393098;28;20037;-51
2022/07/18 22:37:46;;;;;;;4.03;2.20;;;;;;;;;;10412000;28;21185;-51
2022/07/18 22:42:48;;;;;;;4.57;2.63;;;;;;;;;;10401977;28;20037;-57
2022/07/18 22:47:49;;;;;;;7.00;2.60;;;;;;;;;;10407860;28;20381;-56
2022/07/18 22:52:49;;;;;;;7.30;2.42;;;;;;;;;;10401467;28;20033;-56
2022/07/18 22:57:50;;;;;;;4.40;2.38;;;;;;;;;;10405892;28;20052;-58
2022/07/18 23:02:51;;;;;;;6.65;2.50;;;;;;;;;;10420629;28;20049;-55
2022/07/18 23:07:59;;;;;;;3.22;1.98;;;;;;;;;;10398055;28;20106;-50
2022/07/18 23:13:00;;;;;;;4.07;2.75;;;;;;;;;;10406939;28;20392;-54
2022/07/18 23:18:02;;;;;;;10.50;2.72;;;;;;;;;;10408121;28;20499;-53
2022/07/18 23:23:03;;;;;;;5.40;2.80;;;;;;;;;;10412627;28;20616;-55
2022/07/18 23:28:04;;;;;;;10.68;2.42;;;;;;;;;;10420735;28;20304;-51
2022/07/18 23:33:05;;;;;;;4.40;2.28;;;;;;;;;;10412893;28;20484;-52
2022/07/18 23:38:05;;;;;;;6.50;2.45;;;;;;;;;;10422678;28;20014;-53
2022/07/18 23:43:06;;;;;;;4.80;2.55;;;;;;;;;;10420959;28;20087;-54
2022/07/18 23:48:06;;;;;;;3.05;2.10;;;;;;;;;;10407053;28;20120;-54
2022/07/18 23:53:07;;;;;;;6.07;2.10;;;;;;;;;;10419661;28;20029;-53
2022/07/18 23:58:08;;;;;;;3.42;2.08;;;;;;;;;;10403236;28;20582;-57
